Time;durP1;ratioP1;P1;durP2;ratioP2;P2;SDS_P1;SDS_P2;PMS_P1;PMS_P2;Temp;Humidity;BMP_temperature;BMP_pressure;BME280_temperature;BME280_humidity;BME280_pressure;Samples;Min_cycle;Max_cycle;Signal;HPM_P1;HPM_P2
2024/03/30 00:01:55;;;;;;;0.40;0.40;;;12.90;99.90;;;;;;5000320;28;20244;-33
2024/03/30 00:04:21;;;;;;;0.55;0.50;;;12.90;99.90;;;;;;5000449;28;20025;-32
2024/03/30 00:06:46;;;;;;;0.55;0.50;;;12.90;99.90;;;;;;5001749;28;20048;-35
2024/03/30 00:09:12;;;;;;;1.02;0.50;;;12.90;99.90;;;;;;4999633;28;20029;-33
2024/03/30 00:11:38;;;;;;;0.68;0.47;;;12.80;99.90;;;;;;5001584;28;20022;-35
2024/03/30 00:14:03;;;;;;;0.57;0.57;;;12.80;99.90;;;;;;5002078;28;20030;-34
2024/03/30 00:16:29;;;;;;;0.50;0.40;;;12.80;99.90;;;;;;5004904;28;20905;-36
2024/03/30 00:18:56;;;;;;;0.50;0.47;;;12.80;99.90;;;;;;5004793;28;20527;-31
2024/03/30 00:21:22;;;;;;;1.08;0.75;;;12.80;99.90;;;;;;5003942;28;20060;-34
2024/03/30 00:23:48;;;;;;;0.40;0.40;;;12.80;99.90;;;;;;5004401;28;20481;-35
2024/03/30 00:26:13;;;;;;;0.75;0.40;;;12.70;99.90;;;;;;5004783;28;20044;-33
2024/03/30 00:28:39;;;;;;;0.55;0.43;;;12.70;99.90;;;;;;5004400;28;20488;-36
2024/03/30 00:31:04;;;;;;;0.40;0.40;;;12.80;99.90;;;;;;5004248;28;20049;-34
2024/03/30 00:33:30;;;;;;;0.30;0.30;;;12.70;99.90;;;;;;5004355;28;20018;-32
2024/03/30 00:35:57;;;;;;;0.68;0.30;;;12.70;99.90;;;;;;5003677;28;20029;-34
2024/03/30 00:38:23;;;;;;;0.30;0.30;;;12.70;99.90;;;;;;5003832;28;20037;-31
2024/03/30 00:40:49;;;;;;;0.77;0.47;;;12.70;99.90;;;;;;5003954;28;20068;-34
2024/03/30 00:43:15;;;;;;;0.40;0.40;;;12.70;99.90;;;;;;5003419;28;20109;-34
2024/03/30 00:45:42;;;;;;;0.47;0.47;;;12.70;99.90;;;;;;5004179;28;20026;-35
2024/03/30 00:48:08;;;;;;;0.80;0.60;;;12.70;99.90;;;;;;5004359;28;20042;-34
2024/03/30 00:50:34;;;;;;;0.30;0.30;;;12.70;99.90;;;;;;5003422;28;20385;-36
2024/03/30 00:53:01;;;;;;;0.43;0.40;;;12.80;99.90;;;;;;5004385;28;20040;-36
2024/03/30 00:55:27;;;;;;;1.95;0.60;;;12.80;99.90;;;;;;5003462;28;20084;-32
2024/03/30 00:57:52;;;;;;;0.50;0.50;;;12.80;99.90;;;;;;5003116;28;20053;-35
2024/03/30 01:00:18;;;;;;;0.40;0.40;;;12.80;99.90;;;;;;5003654;28;20026;-35
2024/03/30 01:02:44;;;;;;;0.93;0.40;;;12.70;99.90;;;;;;5004148;28;20653;-34
2024/03/30 01:05:10;;;;;;;0.47;0.35;;;12.70;99.90;;;;;;5002978;28;20025;-33
2024/03/30 01:07:38;;;;;;;0.20;0.20;;;12.80;99.90;;;;;;5004087;28;20026;-33
2024/03/30 01:10:06;;;;;;;0.20;0.20;;;12.70;99.90;;;;;;5002811;28;20465;-31
2024/03/30 01:12:32;;;;;;;0.47;0.25;;;12.70;99.90;;;;;;5003011;28;20049;-33
2024/03/30 01:14:58;;;;;;;0.40;0.40;;;12.70;99.90;;;;;;5003756;28;20025;-35
2024/03/30 01:17:24;;;;;;;0.38;0.32;;;12.70;99.90;;;;;;5002797;28;20776;-34
2024/03/30 01:19:50;;;;;;;0.47;0.47;;;12.70;99.90;;;;;;5003611;28;20057;-31
2024/03/30 01:22:16;;;;;;;0.50;0.38;;;12.60;99.90;;;;;;5003625;28;20026;-36
2024/03/30 01:24:42;;;;;;;0.73;0.40;;;12.60;99.90;;;;;;5003299;28;20155;-36
2024/03/30 01:27:12;;;;;;;0.68;0.40;;;12.60;99.90;;;;;;5003216;28;20460;-35
2024/03/30 01:29:40;;;;;;;0.45;0.40;;;12.60;99.90;;;;;;5003573;28;20050;-31
2024/03/30 01:32:06;;;;;;;0.73;0.40;;;12.60;99.90;;;;;;5002147;28;20026;-33
2024/03/30 01:34:32;;;;;;;0.38;0.38;;;12.60;99.90;;;;;;5003701;28;20076;-35
2024/03/30 01:36:57;;;;;;;0.50;0.50;;;12.50;99.90;;;;;;5002949;28;20045;-33
2024/03/30 01:39:23;;;;;;;0.65;0.60;;;12.50;99.90;;;;;;5002212;28;20044;-34
2024/03/30 01:41:48;;;;;;;0.47;0.47;;;12.50;99.90;;;;;;5003066;28;20539;-35
2024/03/30 01:44:14;;;;;;;0.45;0.43;;;12.50;99.90;;;;;;5003138;28;20735;-35
2024/03/30 01:46:40;;;;;;;0.45;0.40;;;12.50;99.90;;;;;;5002358;28;20030;-34
2024/03/30 01:49:09;;;;;;;1.05;0.60;;;12.50;99.90;;;;;;5002304;28;20030;-34
2024/03/30 01:51:35;;;;;;;0.52;0.50;;;12.50;99.90;;;;;;5003036;28;20087;-36
2024/03/30 01:54:02;;;;;;;0.88;0.50;;;12.50;99.90;;;;;;5001758;28;20484;-35
2024/03/30 01:56:29;;;;;;;0.77;0.60;;;12.50;99.90;;;;;;5002505;28;20026;-32
2024/03/30 01:58:55;;;;;;;0.80;0.60;;;12.50;99.90;;;;;;5002236;28;20397;-35
2024/03/30 02:01:22;;;;;;;0.52;0.52;;;12.50;99.90;;;;;;5001928;28;20115;-32
2024/03/30 02:03:51;;;;;;;0.77;0.60;;;12.40;99.90;;;;;;5002494;28;20022;-36
2024/03/30 02:06:16;;;;;;;0.93;0.82;;;12.40;99.90;;;;;;5003130;28;20083;-33
2024/03/30 02:08:44;;;;;;;0.98;0.70;;;12.40;99.90;;;;;;5002214;28;20436;-31
2024/03/30 02:11:09;;;;;;;0.90;0.90;;;12.30;99.90;;;;;;5002475;28;20033;-33
2024/03/30 02:13:35;;;;;;;1.13;1.13;;;12.30;99.90;;;;;;5002640;28;20029;-34
2024/03/30 02:16:01;;;;;;;1.13;1.00;;;12.30;99.90;;;;;;5001720;28;20057;-33
2024/03/30 02:18:26;;;;;;;1.85;1.10;;;12.30;99.90;;;;;;5001827;28;20038;-33
2024/03/30 02:20:52;;;;;;;1.17;1.08;;;12.30;99.90;;;;;;5001604;28;20045;-31
2024/03/30 02:23:17;;;;;;;1.20;1.10;;;12.30;99.90;;;;;;5001848;28;20034;-35
2024/03/30 02:25:43;;;;;;;2.47;1.08;;;12.20;99.90;;;;;;5002196;28;20030;-32
2024/03/30 02:28:09;;;;;;;1.52;1.30;;;12.30;99.90;;;;;;5001000;28;20107;-35
2024/03/30 02:30:34;;;;;;;1.25;1.15;;;12.20;99.90;;;;;;5002131;28;20128;-33
2024/03/30 02:33:00;;;;;;;1.20;1.02;;;12.20;99.90;;;;;;5001532;28;20045;-34
2024/03/30 02:35:27;;;;;;;1.77;1.40;;;12.20;99.90;;;;;;5000748;28;20083;-34
2024/03/30 02:37:53;;;;;;;1.55;1.20;;;12.20;99.90;;;;;;5001233;28;20474;-35
2024/03/30 02:40:20;;;;;;;1.92;1.23;;;12.20;99.90;;;;;;5002441;28;20056;-34
2024/03/30 02:42:45;;;;;;;1.58;1.35;;;12.10;99.90;;;;;;5001900;28;20679;-32
2024/03/30 02:45:12;;;;;;;2.65;1.40;;;12.10;99.90;;;;;;5001029;28;20831;-33
2024/03/30 02:47:38;;;;;;;1.48;1.38;;;12.10;99.90;;;;;;5002165;28;20034;-35
2024/03/30 02:50:04;;;;;;;1.58;1.35;;;12.10;99.90;;;;;;5000422;28;20079;-36
2024/03/30 02:52:30;;;;;;;1.50;1.40;;;12.10;99.90;;;;;;5002537;28;20030;-30
2024/03/30 02:54:56;;;;;;;1.63;1.52;;;12.10;99.90;;;;;;5001503;28;20484;-36
2024/03/30 02:57:21;;;;;;;1.83;1.50;;;12.10;99.90;;;;;;5000844;28;20038;-33
2024/03/30 02:59:47;;;;;;;1.10;1.00;;;12.10;99.90;;;;;;5000897;28;20022;-35
2024/03/30 03:02:12;;;;;;;1.20;1.10;;;12.10;99.90;;;;;;5001217;28;20760;-32
2024/03/30 03:04:38;;;;;;;1.35;1.25;;;12.10;99.90;;;;;;5000921;28;20084;-35
2024/03/30 03:07:06;;;;;;;1.40;1.30;;;12.10;99.90;;;;;;5000676;28;20080;-34
2024/03/30 03:09:31;;;;;;;1.55;1.30;;;12.10;99.90;;;;;;5001246;28;20022;-34
2024/03/30 03:11:57;;;;;;;1.27;1.17;;;12.10;99.90;;;;;;5000946;28;20440;-36
2024/03/30 03:14:23;;;;;;;1.52;1.42;;;12.10;99.90;;;;;;5001447;28;20136;-34
2024/03/30 03:16:48;;;;;;;1.85;1.33;;;12.10;99.90;;;;;;5001301;28;20038;-32
2024/03/30 03:19:14;;;;;;;1.80;1.48;;;12.00;99.90;;;;;;5000679;28;20038;-35
2024/03/30 03:21:39;;;;;;;2.58;1.90;;;12.00;99.90;;;;;;5001843;28;20028;-36
2024/03/30 03:24:05;;;;;;;1.52;1.42;;;12.00;99.90;;;;;;5000031;28;20492;-36
2024/03/30 03:26:31;;;;;;;2.30;2.10;;;11.90;99.90;;;;;;5001467;28;20544;-36
2024/03/30 03:28:56;;;;;;;3.55;2.40;;;11.90;99.90;;;;;;5001341;28;20053;-35
2024/03/30 03:31:22;;;;;;;1.92;1.60;;;11.90;99.90;;;;;;5000566;28;20036;-31
2024/03/30 03:33:49;;;;;;;2.17;2.00;;;11.90;99.90;;;;;;5001075;28;20033;-35
2024/03/30 03:36:15;;;;;;;2.33;2.13;;;11.90;99.90;;;;;;5001073;28;20121;-31
2024/03/30 03:38:41;;;;;;;2.92;2.72;;;11.90;99.90;;;;;;5001024;28;20038;-35
2024/03/30 03:41:07;;;;;;;2.60;2.40;;;11.90;99.90;;;;;;5000949;28;20018;-34
2024/03/30 03:43:33;;;;;;;4.00;3.35;;;11.80;99.90;;;;;;5001106;28;20036;-30
2024/03/30 03:45:58;;;;;;;3.05;2.75;;;11.80;99.90;;;;;;4999695;28;20101;-35
2024/03/30 03:48:24;;;;;;;2.38;2.15;;;11.80;99.90;;;;;;5000427;28;20056;-32
2024/03/30 03:50:49;;;;;;;2.22;2.03;;;11.70;99.90;;;;;;5000453;28;20033;-33
2024/03/30 03:53:15;;;;;;;2.20;2.00;;;11.70;99.90;;;;;;5000029;28;20030;-34
2024/03/30 03:55:44;;;;;;;2.63;2.30;;;11.70;99.90;;;;;;5001213;28;20025;-34
2024/03/30 03:58:10;;;;;;;2.83;2.58;;;11.70;99.90;;;;;;5000436;28;20066;-33
2024/03/30 04:00:35;;;;;;;2.47;2.20;;;11.70;99.90;;;;;;5000583;28;20097;-31
2024/03/30 04:03:01;;;;;;;3.00;2.67;;;11.70;99.90;;;;;;5001127;28;20512;-35
2024/03/30 04:05:27;;;;;;;2.58;2.30;;;11.70;99.90;;;;;;5000821;28;20069;-31
2024/03/30 04:07:52;;;;;;;2.13;1.92;;;11.70;99.90;;;;;;4999900;28;20748;-36
2024/03/30 04:10:20;;;;;;;2.85;2.00;;;11.70;99.90;;;;;;5000148;28;20041;-32
2024/03/30 04:12:48;;;;;;;2.15;1.90;;;11.70;99.90;;;;;;4999278;28;20030;-34
2024/03/30 04:15:13;;;;;;;2.85;2.50;;;11.70;99.90;;;;;;5000010;28;20534;-34
2024/03/30 04:17:39;;;;;;;2.97;2.53;;;11.70;99.90;;;;;;5000374;28;20038;-32
2024/03/30 04:20:05;;;;;;;2.80;2.60;;;11.80;99.90;;;;;;5000656;28;20028;-35
2024/03/30 04:22:31;;;;;;;4.35;3.95;;;11.80;99.90;;;;;;4999855;28;20057;-37
2024/03/30 04:24:57;;;;;;;3.78;3.47;;;11.80;99.90;;;;;;5000447;28;20053;-36
2024/03/30 04:27:22;;;;;;;3.17;2.97;;;11.80;99.90;;;;;;4999556;28;20038;-37
2024/03/30 04:29:48;;;;;;;3.72;3.42;;;11.80;99.90;;;;;;5000849;28;20074;-34
2024/03/30 04:32:14;;;;;;;3.95;3.55;;;11.80;99.90;;;;;;5000387;28;20081;-36
2024/03/30 04:34:40;;;;;;;3.45;3.15;;;11.70;99.90;;;;;;5000362;28;20036;-33
2024/03/30 04:37:06;;;;;;;3.03;2.72;;;11.70;99.90;;;;;;4999834;28;20033;-35
2024/03/30 04:39:31;;;;;;;3.15;2.90;;;11.70;99.90;;;;;;5000664;28;20033;-34
2024/03/30 04:42:01;;;;;;;2.97;2.72;;;11.70;99.90;;;;;;4999618;28;20726;-34
2024/03/30 04:44:27;;;;;;;2.70;2.50;;;11.70;99.90;;;;;;4989788;28;20127;-37
2024/03/30 04:46:52;;;;;;;3.20;2.90;;;11.80;99.90;;;;;;5000322;28;20025;-35
2024/03/30 04:49:18;;;;;;;2.78;2.58;;;11.80;99.90;;;;;;4999489;28;20473;-34
2024/03/30 04:51:44;;;;;;;3.00;2.70;;;11.70;99.90;;;;;;5000933;28;20057;-33
2024/03/30 04:54:09;;;;;;;3.80;3.13;;;11.70;99.90;;;;;;5000084;28;20030;-35
2024/03/30 04:56:35;;;;;;;3.60;3.30;;;11.70;99.90;;;;;;4999611;28;20577;-32
2024/03/30 04:59:01;;;;;;;3.03;2.83;;;11.60;99.90;;;;;;5000281;28;20117;-35
2024/03/30 05:01:26;;;;;;;3.95;3.55;;;11.60;99.90;;;;;;5003438;28;20030;-34
2024/03/30 05:03:52;;;;;;;4.10;3.80;;;11.60;99.90;;;;;;5003002;28;20053;-36
2024/03/30 05:06:18;;;;;;;4.82;4.43;;;11.50;99.90;;;;;;5004236;28;20473;-35
2024/03/30 05:08:43;;;;;;;3.97;3.67;;;11.50;99.90;;;;;;5003932;28;20072;-36
2024/03/30 05:11:09;;;;;;;4.00;3.70;;;11.40;99.90;;;;;;5002562;28;20054;-36
2024/03/30 05:13:36;;;;;;;4.03;3.72;;;11.40;99.90;;;;;;5003634;28;20129;-35
2024/03/30 05:16:02;;;;;;;3.70;3.40;;;11.40;99.90;;;;;;5003814;28;20022;-31
2024/03/30 05:18:27;;;;;;;3.65;3.35;;;11.40;99.90;;;;;;5003497;28;20077;-33
2024/03/30 05:21:00;;;;;;;4.15;3.67;;;11.40;99.90;;;;;;5003752;28;20137;-34
2024/03/30 05:23:33;;;;;;;4.05;3.50;;;11.40;99.90;;;;;;5003664;28;20152;-35
2024/03/30 05:26:01;;;;;;;3.90;3.60;;;11.40;99.90;;;;;;5003723;28;20041;-33
2024/03/30 05:28:28;;;;;;;4.13;3.72;;;11.30;99.90;;;;;;5003530;28;20033;-37
2024/03/30 05:30:55;;;;;;;4.45;3.90;;;11.30;99.90;;;;;;5002697;28;20230;-32
2024/03/30 05:33:22;;;;;;;4.35;3.95;;;11.30;99.90;;;;;;5003586;28;20050;-35
2024/03/30 05:35:49;;;;;;;5.05;4.60;;;11.30;99.90;;;;;;5003108;28;20018;-35
2024/03/30 05:38:16;;;;;;;4.38;3.97;;;11.20;99.90;;;;;;5001995;28;20041;-33
2024/03/30 05:40:43;;;;;;;4.32;3.90;;;11.20;99.90;;;;;;5002574;28;20452;-34
2024/03/30 05:43:09;;;;;;;4.38;3.97;;;11.20;99.90;;;;;;5003326;28;20705;-34
2024/03/30 05:45:36;;;;;;;4.25;3.85;;;11.20;99.90;;;;;;5003310;28;20092;-34
2024/03/30 05:48:01;;;;;;;3.70;3.35;;;11.20;99.90;;;;;;5004292;28;20040;-36
2024/03/30 05:50:28;;;;;;;4.60;4.20;;;11.20;99.90;;;;;;5003112;28;20036;-32
2024/03/30 05:52:54;;;;;;;3.53;3.22;;;11.20;99.90;;;;;;5002261;28;20905;-33
2024/03/30 05:55:20;;;;;;;3.63;3.33;;;11.20;99.90;;;;;;5002822;28;20030;-34
2024/03/30 05:57:46;;;;;;;3.72;3.28;;;11.20;99.90;;;;;;5003711;28;20041;-35
2024/03/30 06:00:13;;;;;;;4.05;3.58;;;11.20;99.90;;;;;;5001971;28;20022;-33
2024/03/30 06:02:41;;;;;;;3.42;3.13;;;11.20;99.90;;;;;;5003508;28;20045;-33
2024/03/30 06:05:06;;;;;;;4.82;3.92;;;11.20;99.90;;;;;;5002435;28;20108;-35
2024/03/30 06:07:32;;;;;;;4.15;3.72;;;11.20;99.90;;;;;;5002438;28;20091;-36
2024/03/30 06:09:58;;;;;;;4.60;4.20;;;11.20;99.90;;;;;;5003054;28;20053;-34
2024/03/30 06:12:23;;;;;;;4.40;4.00;;;11.20;99.90;;;;;;5001707;28;20377;-34
2024/03/30 06:14:49;;;;;;;4.05;3.70;;;11.20;99.90;;;;;;5001585;28;20162;-35
2024/03/30 06:17:15;;;;;;;3.47;3.17;;;11.20;99.90;;;;;;5002500;28;20091;-34
2024/03/30 06:19:41;;;;;;;3.75;2.90;;;11.20;99.90;;;;;;5003124;28;20064;-36
2024/03/30 06:22:07;;;;;;;2.80;2.60;;;11.20;99.90;;;;;;5002127;28;20548;-36
2024/03/30 06:24:34;;;;;;;3.80;3.50;;;11.20;99.90;;;;;;5003139;28;20037;-33
2024/03/30 06:26:59;;;;;;;3.10;2.80;;;11.20;99.90;;;;;;5001953;28;20056;-33
2024/03/30 06:29:26;;;;;;;2.70;2.50;;;11.20;99.90;;;;;;5002510;28;20046;-34
2024/03/30 06:31:52;;;;;;;3.78;2.85;;;11.30;99.90;;;;;;5002340;28;20052;-34
2024/03/30 06:34:17;;;;;;;3.22;2.90;;;11.30;99.90;;;;;;5001731;28;20653;-33
2024/03/30 06:36:43;;;;;;;4.38;3.30;;;11.30;99.90;;;;;;5002459;28;20424;-35
2024/03/30 06:39:09;;;;;;;3.30;3.00;;;11.30;99.90;;;;;;5001892;28;20072;-32
2024/03/30 06:44:18;;;;;;;3.00;2.80;;;11.30;99.90;;;;;;5002348;28;20041;-33
2024/03/30 06:46:44;;;;;;;3.03;2.78;;;11.40;99.90;;;;;;5002353;28;20018;-34
2024/03/30 06:49:09;;;;;;;3.03;2.72;;;11.40;99.90;;;;;;5001342;28;20029;-33
2024/03/30 06:51:35;;;;;;;3.40;3.10;;;11.40;99.90;;;;;;5002262;28;20026;-33
2024/03/30 06:54:01;;;;;;;4.57;3.78;;;11.40;99.90;;;;;;5002386;28;20025;-31
2024/03/30 06:56:26;;;;;;;3.42;3.13;;;11.50;99.90;;;;;;5001495;28;20550;-34
2024/03/30 06:58:52;;;;;;;3.15;2.85;;;11.40;99.90;;;;;;4991339;28;20087;-32
2024/03/30 07:01:17;;;;;;;3.90;3.50;;;11.40;99.90;;;;;;5001897;28;20459;-36
2024/03/30 07:03:43;;;;;;;5.65;4.60;;;11.50;99.90;;;;;;5000867;28;20044;-37
2024/03/30 07:06:10;;;;;;;4.43;4.03;;;11.50;99.90;;;;;;5001995;28;20480;-32
2024/03/30 07:08:36;;;;;;;4.03;3.60;;;11.50;99.90;;;;;;5002553;28;20095;-34
2024/03/30 07:11:01;;;;;;;3.72;3.40;;;11.50;99.90;;;;;;5001373;28;20049;-36
2024/03/30 07:13:27;;;;;;;5.10;3.83;;;11.50;99.90;;;;;;5001647;28;20029;-34
2024/03/30 07:15:53;;;;;;;6.03;4.38;;;11.60;99.90;;;;;;5001800;28;20034;-35
2024/03/30 07:18:19;;;;;;;7.68;5.68;;;11.70;99.90;;;;;;5000704;28;20196;-37
2024/03/30 07:20:44;;;;;;;6.80;5.68;;;11.70;99.90;;;;;;5001375;28;20481;-34
2024/03/30 07:23:10;;;;;;;6.78;5.63;;;11.70;99.90;;;;;;4999580;28;20464;-35
2024/03/30 07:25:37;;;;;;;8.80;6.88;;;11.80;99.90;;;;;;5001346;28;20551;-31
2024/03/30 07:28:04;;;;;;;7.53;6.53;;;11.80;99.90;;;;;;5000519;28;20029;-36
2024/03/30 07:30:30;;;;;;;8.43;6.90;;;11.80;99.90;;;;;;5000435;28;20042;-31
2024/03/30 07:32:55;;;;;;;7.65;6.85;;;11.80;99.90;;;;;;5000638;28;20022;-36
2024/03/30 07:35:21;;;;;;;10.52;8.25;;;11.80;99.90;;;;;;5002178;28;20615;-34
2024/03/30 07:37:46;;;;;;;9.30;7.78;;;11.90;99.90;;;;;;5000903;28;20041;-29
2024/03/30 07:40:12;;;;;;;10.02;7.65;;;11.90;99.90;;;;;;5000731;28;20025;-34
2024/03/30 07:42:40;;;;;;;10.63;8.73;;;11.90;99.90;;;;;;5001570;28;20026;-32
2024/03/30 07:45:05;;;;;;;8.20;7.40;;;11.90;99.90;;;;;;5000522;28;20060;-32
2024/03/30 07:47:31;;;;;;;8.50;7.68;;;11.90;99.90;;;;;;5001542;28;20061;-34
2024/03/30 07:49:56;;;;;;;8.05;6.82;;;12.00;99.90;;;;;;5000947;28;20025;-34
2024/03/30 07:52:22;;;;;;;7.65;6.90;;;12.00;99.90;;;;;;5000526;28;20087;-32
2024/03/30 07:54:47;;;;;;;8.38;6.78;;;12.00;99.90;;;;;;5000923;28;20030;-35
2024/03/30 07:57:13;;;;;;;6.60;5.82;;;12.00;99.90;;;;;;5001177;28;20033;-34
2024/03/30 07:59:38;;;;;;;6.93;6.25;;;12.00;99.90;;;;;;5000243;28;20013;-35
2024/03/30 08:02:04;;;;;;;6.57;5.97;;;12.00;99.90;;;;;;5000508;28;20044;-33
2024/03/30 08:04:29;;;;;;;7.40;6.30;;;12.00;99.90;;;;;;5000747;28;20022;-34
2024/03/30 08:06:56;;;;;;;8.18;6.57;;;12.10;99.90;;;;;;5000502;28;20076;-31
2024/03/30 08:09:22;;;;;;;7.97;7.18;;;12.00;99.90;;;;;;5000920;28;20021;-38
2024/03/30 08:11:48;;;;;;;9.95;7.65;;;12.00;99.90;;;;;;5000983;28;20034;-35
2024/03/30 08:14:19;;;;;;;8.38;7.53;;;12.00;99.90;;;;;;5000706;28;20030;-34
2024/03/30 08:16:45;;;;;;;8.10;7.30;;;12.00;99.90;;;;;;5001441;28;20652;-33
2024/03/30 08:19:11;;;;;;;7.90;7.07;;;12.00;99.90;;;;;;5000912;28;20512;-32
2024/03/30 08:21:37;;;;;;;7.65;6.85;;;12.00;99.90;;;;;;5000009;28;20770;-33
2024/03/30 08:24:03;;;;;;;7.60;6.80;;;12.00;99.90;;;;;;4999904;28;20119;-35
2024/03/30 08:26:29;;;;;;;7.53;6.88;;;12.10;99.90;;;;;;4999177;28;20575;-32
2024/03/30 08:28:54;;;;;;;7.68;6.97;;;12.10;99.90;;;;;;4998817;28;20026;-33
2024/03/30 08:31:20;;;;;;;7.65;6.60;;;12.20;99.90;;;;;;4999384;28;20674;-35
2024/03/30 08:33:47;;;;;;;7.10;6.40;;;12.20;99.90;;;;;;4998931;28;20053;-37
2024/03/30 08:36:12;;;;;;;8.07;6.80;;;12.30;99.90;;;;;;5002648;28;20025;-36
2024/03/30 08:38:38;;;;;;;8.10;7.25;;;12.40;99.90;;;;;;5004562;28;20046;-33
2024/03/30 08:41:04;;;;;;;7.47;6.72;;;12.40;99.90;;;;;;5002924;28;20381;-35
2024/03/30 08:43:30;;;;;;;7.03;6.32;;;12.50;99.90;;;;;;5004240;28;20022;-33
2024/03/30 08:45:57;;;;;;;8.07;6.95;;;12.50;99.90;;;;;;5003911;28;20113;-34
2024/03/30 08:48:23;;;;;;;7.55;6.85;;;12.60;99.90;;;;;;5004398;28;20026;-33
2024/03/30 08:50:50;;;;;;;7.18;6.38;;;12.60;99.90;;;;;;5005100;28;20021;-34
2024/03/30 08:53:15;;;;;;;7.90;7.10;;;12.70;99.90;;;;;;5004933;28;20026;-36
2024/03/30 08:55:41;;;;;;;7.38;6.50;;;12.70;99.90;;;;;;5003865;28;20018;-35
2024/03/30 08:58:07;;;;;;;7.25;5.82;;;12.90;99.90;;;;;;5003823;28;20132;-34
2024/03/30 09:00:33;;;;;;;6.53;5.70;;;13.00;99.90;;;;;;5004164;28;20025;-34
2024/03/30 09:02:59;;;;;;;6.00;5.47;;;13.10;99.90;;;;;;5002840;28;20102;-34
2024/03/30 09:05:28;;;;;;;6.97;5.72;;;13.20;99.90;;;;;;5003249;28;20467;-33
2024/03/30 09:07:54;;;;;;;6.60;5.60;;;13.30;99.90;;;;;;5003626;28;20483;-32
2024/03/30 09:10:21;;;;;;;6.45;5.25;;;13.40;99.90;;;;;;5002881;28;20469;-30
2024/03/30 09:12:47;;;;;;;6.85;5.32;;;13.40;99.90;;;;;;5004080;28;20389;-34
2024/03/30 09:15:13;;;;;;;10.00;5.47;;;13.50;99.90;;;;;;5003882;28;20155;-37
2024/03/30 09:17:39;;;;;;;5.20;4.70;;;13.50;99.90;;;;;;5002796;28;20045;-31
2024/03/30 09:20:05;;;;;;;5.00;4.32;;;13.60;99.90;;;;;;5003363;28;20032;-36
2024/03/30 09:22:30;;;;;;;4.50;3.83;;;13.70;99.90;;;;;;5003488;28;20030;-33
2024/03/30 09:24:57;;;;;;;4.03;3.70;;;13.80;99.90;;;;;;5003013;28;20469;-33
2024/03/30 09:27:23;;;;;;;4.95;4.50;;;13.90;99.90;;;;;;5003616;28;20454;-33
2024/03/30 09:29:49;;;;;;;4.35;3.90;;;14.00;99.90;;;;;;5003131;28;20074;-34
2024/03/30 09:32:16;;;;;;;4.25;3.55;;;14.00;99.90;;;;;;5003490;28;20022;-32
2024/03/30 09:34:42;;;;;;;4.07;3.50;;;14.00;99.90;;;;;;5003884;28;20764;-29
2024/03/30 09:37:12;;;;;;;3.88;3.20;;;14.10;99.90;;;;;;5002336;28;20045;-35
2024/03/30 09:39:39;;;;;;;3.95;3.25;;;14.10;99.90;;;;;;5003646;28;20121;-34
2024/03/30 09:42:11;;;;;;;6.53;3.70;;;14.20;99.90;;;;;;5002267;28;20029;-34
2024/03/30 09:44:37;;;;;;;3.72;3.03;;;14.20;99.90;;;;;;5002632;28;20033;-32
2024/03/30 09:47:05;;;;;;;4.35;3.13;;;14.20;99.90;;;;;;5002305;28;20026;-32
2024/03/30 09:49:33;;;;;;;7.22;4.05;;;14.30;99.90;;;;;;5002714;28;20033;-34
2024/03/30 09:52:06;;;;;;;3.33;2.92;;;14.40;99.90;;;;;;5002587;28;20033;-35
2024/03/30 09:54:34;;;;;;;4.95;2.92;;;14.40;99.90;;;;;;5002958;28;20044;-33
2024/03/30 09:57:01;;;;;;;5.32;2.95;;;14.40;99.90;;;;;;5003008;28;20026;-33
2024/03/30 09:59:27;;;;;;;3.10;2.72;;;14.50;99.90;;;;;;5001985;28;20594;-33
2024/03/30 10:01:53;;;;;;;3.17;2.70;;;14.50;99.90;;;;;;5003424;28;20052;-35
2024/03/30 10:04:18;;;;;;;6.22;2.83;;;14.60;99.90;;;;;;5002744;28;20025;-37
2024/03/30 10:06:56;;;;;;;5.72;2.08;;;14.60;99.90;;;;;;5002895;28;20057;-36
2024/03/30 10:09:26;;;;;;;5.07;1.95;;;14.60;99.90;;;;;;5003392;28;20115;-33
2024/03/30 10:12:01;;;;;;;3.75;2.08;;;14.70;99.90;;;;;;5003110;28;20381;-35
2024/03/30 10:14:42;;;;;;;3.70;1.85;;;14.80;99.90;;;;;;5003274;28;20064;-34
2024/03/30 10:17:09;;;;;;;3.70;1.83;;;14.80;99.90;;;;;;5002369;28;20030;-32
2024/03/30 10:19:35;;;;;;;4.93;1.95;;;15.00;99.90;;;;;;5001430;28;20029;-36
2024/03/30 10:22:02;;;;;;;2.72;2.22;;;15.10;99.90;;;;;;5002449;28;20025;-34
2024/03/30 10:24:29;;;;;;;5.25;1.70;;;15.10;99.90;;;;;;5002187;28;20034;-36
2024/03/30 10:26:55;;;;;;;3.40;1.80;;;15.20;99.90;;;;;;5001901;28;20600;-34
2024/03/30 10:29:21;;;;;;;4.90;1.70;;;15.20;99.90;;;;;;5001684;28;20497;-36
2024/03/30 10:31:47;;;;;;;3.75;1.70;;;15.20;99.90;;;;;;5002162;28;20044;-35
2024/03/30 10:34:13;;;;;;;4.38;2.30;;;15.20;99.90;;;;;;5001152;28;20061;-33
2024/03/30 10:36:39;;;;;;;3.13;1.42;;;15.20;99.90;;;;;;5002011;28;20145;-32
2024/03/30 10:39:05;;;;;;;4.53;2.15;;;15.20;99.90;;;;;;5001412;28;20358;-34
2024/03/30 10:41:31;;;;;;;4.93;2.00;;;15.30;99.90;;;;;;5001832;28;20543;-30
2024/03/30 10:43:57;;;;;;;7.97;2.15;;;15.30;99.90;;;;;;5002030;28;20025;-32
2024/03/30 10:46:29;;;;;;;6.63;2.20;;;15.30;99.90;;;;;;5001974;28;20384;-35
2024/03/30 10:48:55;;;;;;;4.20;2.10;;;15.30;99.90;;;;;;5001694;28;20110;-35
2024/03/30 10:51:21;;;;;;;8.68;2.10;;;15.30;99.90;;;;;;5002554;28;20018;-36
2024/03/30 10:53:49;;;;;;;7.03;2.80;;;15.40;99.90;;;;;;5002527;28;20105;-34
2024/03/30 10:56:16;;;;;;;5.00;2.50;;;15.40;99.90;;;;;;5000103;28;20105;-34
2024/03/30 10:58:41;;;;;;;4.47;1.85;;;15.50;99.90;;;;;;5001399;28;20034;-33
2024/03/30 11:01:11;;;;;;;6.35;1.80;;;15.60;99.90;;;;;;5000194;28;20026;-33
2024/03/30 11:03:38;;;;;;;4.20;1.70;;;15.70;99.90;;;;;;5001311;28;20530;-33
2024/03/30 11:06:04;;;;;;;2.35;1.58;;;15.80;99.90;;;;;;5001239;28;20083;-36
2024/03/30 11:08:30;;;;;;;5.65;2.00;;;15.80;99.90;;;;;;5000417;28;20026;-36
2024/03/30 11:10:58;;;;;;;4.32;1.60;;;15.90;99.90;;;;;;5001056;28;20060;-36
2024/03/30 11:13:23;;;;;;;2.83;1.50;;;16.00;99.90;;;;;;5001193;28;20044;-35
2024/03/30 11:15:51;;;;;;;6.18;1.65;;;16.00;99.90;;;;;;5000692;28;20030;-33
2024/03/30 11:18:45;;;;;;;5.70;1.75;;;16.10;99.90;;;;;;5001278;28;20080;-37
2024/03/30 11:21:32;;;;;;;6.43;1.60;;;16.10;99.90;;;;;;5001051;28;20026;-36
2024/03/30 11:24:03;;;;;;;4.25;1.67;;;16.10;99.90;;;;;;5000668;28;20559;-36
2024/03/30 11:26:32;;;;;;;5.78;2.30;;;16.20;99.90;;;;;;5001438;28;20076;-33
2024/03/30 11:29:09;;;;;;;5.88;2.20;;;16.20;99.90;;;;;;5001352;28;20030;-35
2024/03/30 11:31:48;;;;;;;5.65;2.10;;;16.10;99.90;;;;;;5000987;28;20440;-33
2024/03/30 11:34:40;;;;;;;5.43;3.08;;;16.20;99.90;;;;;;5001464;28;20045;-34
2024/03/30 11:37:22;;;;;;;9.52;4.10;;;16.20;99.90;;;;;;5000031;28;20018;-34
2024/03/30 11:40:10;;;;;;;6.53;3.47;;;16.30;99.90;;;;;;4981882;28;20485;-35
2024/03/30 11:42:48;;;;;;;8.13;3.13;;;16.30;99.90;;;;;;5001131;28;20022;-33
2024/03/30 11:45:20;;;;;;;6.50;2.90;;;16.40;99.90;;;;;;5000347;28;20827;-35
2024/03/30 11:47:46;;;;;;;6.68;2.55;;;16.40;99.90;;;;;;5000943;28;20041;-35
2024/03/30 11:50:13;;;;;;;7.40;2.13;;;16.40;99.90;;;;;;5000997;28;20030;-37
2024/03/30 11:52:48;;;;;;;7.95;2.83;;;16.40;99.90;;;;;;5000711;28;20887;-36
2024/03/30 11:55:33;;;;;;;4.88;2.10;;;16.30;99.90;;;;;;5000960;28;20500;-36
2024/03/30 11:58:00;;;;;;;4.28;1.95;;;16.30;99.90;;;;;;4999880;28;20049;-35
2024/03/30 12:00:28;;;;;;;5.28;2.08;;;16.30;99.90;;;;;;5001034;28;20083;-34
2024/03/30 12:03:05;;;;;;;8.98;2.38;;;16.30;99.90;;;;;;5000630;28;20069;-33
2024/03/30 12:05:30;;;;;;;9.70;1.90;;;16.40;99.90;;;;;;4980768;28;20104;-32
2024/03/30 12:07:59;;;;;;;8.85;2.67;;;16.50;99.90;;;;;;4995325;28;20822;-36
2024/03/30 12:10:26;;;;;;;7.32;2.97;;;16.60;99.90;;;;;;5003750;28;20030;-36
2024/03/30 12:13:01;;;;;;;12.23;3.20;;;16.70;99.90;;;;;;5004653;28;20026;-35
2024/03/30 12:15:27;;;;;;;9.30;3.40;;;16.70;99.90;;;;;;5005063;28;20030;-34
2024/03/30 12:17:54;;;;;;;9.13;2.35;;;16.70;99.90;;;;;;5004084;28;20453;-34
2024/03/30 12:20:20;;;;;;;15.43;4.72;;;16.70;99.90;;;;;;5003558;28;20057;-36
2024/03/30 12:22:46;;;;;;;8.57;2.90;;;16.70;99.90;;;;;;5004377;28;20026;-36
2024/03/30 12:25:15;;;;;;;13.93;3.67;;;16.80;99.90;;;;;;5004347;28;20040;-34
2024/03/30 12:27:44;;;;;;;14.18;3.00;;;16.70;99.90;;;;;;5004530;28;20018;-37
2024/03/30 12:30:11;;;;;;;8.85;2.75;;;16.70;99.90;;;;;;5004697;28;20061;-31
2024/03/30 12:32:36;;;;;;;13.82;2.40;;;16.80;99.90;;;;;;5003803;28;20897;-36
2024/03/30 12:35:02;;;;;;;10.13;2.88;;;16.80;99.90;;;;;;5004178;28;20026;-37
2024/03/30 12:37:28;;;;;;;6.90;2.47;;;16.90;99.90;;;;;;5003553;28;20052;-36
2024/03/30 12:39:54;;;;;;;6.82;2.00;;;16.90;99.90;;;;;;5003459;28;20029;-30
2024/03/30 12:42:20;;;;;;;9.88;2.22;;;16.90;99.90;;;;;;5002852;28;20136;-36
2024/03/30 12:44:48;;;;;;;10.68;2.67;;;17.00;99.90;;;;;;5003174;28;20156;-35
2024/03/30 12:47:14;;;;;;;8.30;2.15;;;17.00;99.90;;;;;;5003160;28;20033;-37